Weather reports worldwide

Advertisment
Uccle, Belgium (6447): temperature & dewpoint: 06.11.2019 16:00:00 - 12.11.2019 16:00:00 (CET)Uccle, Belgium (6447): wind speed & gusts: 06.11.2019 16:00:00 - 12.11.2019 16:00:00 (CET)Uccle, Belgium (6447): wind direction: 06.11.2019 16:00:00 - 12.11.2019 16:00:00 (CET)Uccle, Belgium (6447): reduced air pressure: 06.11.2019 16:00:00 - 12.11.2019 16:00:00 (CET)Uccle, Belgium (6447): sunshine duration: 06.11.2019 16:00:00 - 12.11.2019 16:00:00 (CET)Uccle, Belgium (6447): precipitation: 06.11.2019 16:00:00 - 12.11.2019 16:00:00 (CET)
Date & Time tt [°C] td [°C] ff [km/h] ff [kn] fx [km/h] fx [kn] dd ppp [hPa] sd [min] rr [mm]
12.11.2019 16:00:00 6,2 2,6 19 10 45 24 SSW 1000,1 44 0,0
12.11.2019 15:00:00 6,7 2,9 23 12 43 23 SSW 1000,1 28 0,0
12.11.2019 14:00:00 6,6 3,4 18 10 42 23 SW 1000,3 11 0,0
12.11.2019 13:00:00 6,3 3,3 21 12 40 22 SW 1000,6 34 0,0
12.11.2019 12:00:00 5,1 2,9 18 10 37 20 SW 1000,9 5 0,0
12.11.2019 11:00:00 4,4 2,8 18 10 35 19 SSW 1000,8 0 0,0
12.11.2019 10:00:00 3,4 2,1 14 7 26 14 SSW 1001,1 0 0,0
12.11.2019 09:00:00 3,2 2,0 20 11 33 18 S 1000,5 0 0,1
12.11.2019 08:00:00 4,1 2,4 19 10 43 23 SW 1001,0 0 0,0
12.11.2019 07:00:00 4,5 2,7 22 12 34 19 SSW 1001,1 0 0,0
12.11.2019 06:00:00 4,3 2,6 19 10 36 20 SSW 1001,1 0 0,0
12.11.2019 05:00:00 4,1 2,6 16 9 31 17 SSW 1001,7 0 0,0
12.11.2019 04:00:00 4,2 2,7 13 7 31 17 SSW 1002,0 0 0,0
12.11.2019 03:00:00 4,4 2,7 15 8 35 19 SSW 1002,5 0 0,0
12.11.2019 02:00:00 4,4 2,8 18 10 43 23 SSW 1002,5 0 0,2
12.11.2019 01:00:00 4,9 3,2 22 12 37 20 SSW 1002,7 0 0,0
12.11.2019 00:00:00 4,7 3,2 16 9 34 19 SSW 1002,8 0 0,0
11.11.2019 23:00:00 4,7 3,0 14 8 30 16 SSW 1002,7 0 0,0
11.11.2019 22:00:00 4,8 3,5 15 8 29 16 SW 1002,7 0 0,0
11.11.2019 21:00:00 5,0 3,8 12 6 27 15 SW 1002,5 0 0,0
11.11.2019 20:00:00 5,1 4,0 16 9 26 14 SW 1002,4 0 0,0
11.11.2019 19:00:00 4,9 3,9 11 6 23 12 SW 1002,4 0 0,0
11.11.2019 18:00:00 5,9 4,9 11 6 26 14 SW 1001,8 0 0,9
11.11.2019 17:00:00 6,3 5,4 14 7 25 13 SW 1001,3 0 0,0
11.11.2019 16:00:00 5,9 5,1 11 6 34 18 SW 1001,1 0 0,6
11.11.2019 15:00:00 5,5 4,6 21 11 50 27 S 1001,1 0 1,1
11.11.2019 14:00:00 5,4 4,2 23 12 56 31 S 1001,4 0 1,1
11.11.2019 13:00:00 5,9 4,5 22 12 49 26 S 1002,0 0 0,9
11.11.2019 12:00:00 6,4 3,6 28 15 57 31 S 1003,0 0 0,0
11.11.2019 11:00:00 6,7 3,8 22 12 50 27 SSW 1003,7 0 0,0
11.11.2019 10:00:00 6,7 3,9 26 14 50 27 S 1004,1 36 0,0
11.11.2019 09:00:00 5,9 3,9 21 11 45 24 S 1004,9 17 0,0
11.11.2019 08:00:00 5,7 4,0 20 11 29 16 S 1006,2 0 0,0
11.11.2019 07:00:00 5,5 4,0 14 8 29 16 S 1007,3 0 0,0
11.11.2019 06:00:00 5,5 3,8 19 10 32 18 S 1007,9 0 0,0
11.11.2019 05:00:00 5,5 4,2 20 11 29 15 SSE 1009,3 0 0,0
11.11.2019 04:00:00 5,0 3,8 18 10 28 15 SSE 1010,8 0 0,0
11.11.2019 03:00:00 4,8 3,5 16 9 25 14 SSE 1011,6 0 0,0
11.11.2019 02:00:00 4,5 3,2 18 10 27 14 SSE 1012,3 0 0,0
11.11.2019 01:00:00 4,0 2,8 14 8 24 13 SSE 1013,1 0 0,0
11.11.2019 00:00:00 3,7 2,4 16 9 26 14 S 1013,3 0 0,0
10.11.2019 23:00:00 3,9 2,8 15 8 22 12 S 1013,5 0 0,0
10.11.2019 22:00:00 2,6 1,9 8 5 15 8 SSE 1013,8 0 0,0
10.11.2019 21:00:00 2,8 2,0 11 6 13 7 SE 1013,7 0 0,0
10.11.2019 20:00:00 3,1 1,9 5 3 6 4 ESE 1014,5 0 0,0
10.11.2019 19:00:00 4,1 2,7 4 2 8 4 ESE 1014,4 0 0,0
10.11.2019 18:00:00 5,6 3,1 5 3 13 7 ESE 1014,2 0 0,0
10.11.2019 17:00:00 7,0 3,1 6 3 10 6 E 1013,7 59 0,0
10.11.2019 16:00:00 9,2 3,5 8 4 12 7 NE 1013,1 60 0,0
10.11.2019 15:00:00 10,3 3,5 6 4 13 7 E 1012,3 60 0,0
10.11.2019 14:00:00 9,5 3,9 5 3 14 8 ESE 1012,1 60 0,0
10.11.2019 13:00:00 8,6 3,6 7 4 14 8 E 1012,1 60 0,0
10.11.2019 12:00:00 8,1 4,3 6 3 19 11 ESE 1011,9 60 0,0
10.11.2019 11:00:00 5,5 3,1 8 5 18 10 E 1011,8 60 0,0
10.11.2019 10:00:00 3,4 2,5 8 5 16 9 E 1011,1 60 0,0
10.11.2019 09:00:00 1,1 0,5 8 4 15 8 E 1010,4 32 0,0
10.11.2019 08:00:00 0,9 0,3 8 4 15 8 E 1009,7 0 0,0
10.11.2019 07:00:00 1,0 0,3 7 4 16 9 ESE 1008,6 0 0,0
10.11.2019 06:00:00 1,3 0,7 9 5 18 10 E 1007,9 0 0,0
10.11.2019 05:00:00 1,3 0,6 9 5 19 10 ESE 1007,5 0 0,0
10.11.2019 04:00:00 2,0 1,2 10 6 23 12 ESE 1007,0 0 0,0
10.11.2019 03:00:00 2,4 1,6 12 7 21 12 SE 1007,0 0 0,0
10.11.2019 02:00:00 2,2 1,5 13 7 21 11 ESE 1006,7 0 0,0
10.11.2019 01:00:00 2,5 1,7 14 8 20 11 SE 1006,7 0 0,0
10.11.2019 00:00:00 2,6 1,8 16 9 21 11 SE 1006,5 0 0,0
09.11.2019 23:00:00 2,8 1,9 11 6 17 9 SE 1006,6 0 0,0
09.11.2019 22:00:00 3,3 2,2 13 7 22 12 SSE 1006,6 0 0,0
09.11.2019 21:00:00 3,8 2,5 14 8 23 13 SSE 1006,6 0 0,0
09.11.2019 20:00:00 4,0 2,6 15 8 21 11 SSE 1006,5 0 0,0
09.11.2019 19:00:00 4,3 2,6 11 6 16 9 SSE 1006,6 0 0,0
09.11.2019 18:00:00 5,3 3,1 11 6 20 11 S 1006,7 0 0,0
09.11.2019 17:00:00 6,7 3,6 13 7 25 13 S 1006,8 28 0,0
09.11.2019 16:00:00 7,8 3,8 9 5 28 15 SSW 1006,9 39 0,0
09.11.2019 15:00:00 8,5 3,8 15 8 29 16 SSW 1007,2 37 0,0
09.11.2019 14:00:00 7,5 3,9 14 8 32 17 SSW 1007,6 34 0,0
09.11.2019 13:00:00 7,8 5,1 14 8 31 17 SSW 1007,9 20 0,0
09.11.2019 12:00:00 6,7 4,7 13 7 31 17 SW 1008,7 1 0,0
09.11.2019 11:00:00 6,1 4,8 18 10 34 18 SW 1009,0 14 0,0
09.11.2019 10:00:00 5,5 4,8 10 5 30 16 SW 1009,0 0 0,0
09.11.2019 09:00:00 5,0 4,4 13 7 27 14 SW 1009,0 0 0,0
09.11.2019 08:00:00 4,8 4,2 13 7 25 13 SSW 1008,7 0 0,0
09.11.2019 07:00:00 5,0 4,4 11 6 25 13 SW 1008,7 0 0,1
09.11.2019 06:00:00 5,2 4,7 12 7 26 14 SW 1008,7 0 0,7
09.11.2019 05:00:00 5,0 4,5 8 5 26 14 SW 1008,6 0 0,0
09.11.2019 04:00:00 4,7 4,2 11 6 25 13 SW 1008,9 0 0,0
09.11.2019 03:00:00 4,8 4,3 11 6 21 11 SW 1008,7 0 0,0
09.11.2019 02:00:00 4,6 4,0 7 4 16 9 S 1008,7 0 0,0
09.11.2019 01:00:00 4,4 3,8 7 4 14 8 SSW 1008,7 0 0,7
09.11.2019 00:00:00 3,9 3,3 5 3 14 7 SW 1008,7 0 0,0
08.11.2019 23:00:00 3,5 2,9 8 4 13 7 SSW 1008,8 0 0,0
08.11.2019 22:00:00 3,5 2,9 7 4 10 6 SSW 1008,6 0 0,0
08.11.2019 21:00:00 3,8 3,0 7 4 11 6 SSW 1008,2 0 0,0
08.11.2019 20:00:00 4,4 3,4 6 4 11 6 SW 1007,9 0 0,0
08.11.2019 19:00:00 5,1 3,8 7 4 10 5 W 1007,8 0 0,0
08.11.2019 18:00:00 6,1 4,2 7 4 10 5 W 1007,4 0 0,0
08.11.2019 17:00:00 7,5 4,6 4 2 13 7 SW 1007,0 35 0,0
08.11.2019 16:00:00 8,8 5,0 7 4 16 9 SW 1006,2 57 0,0
08.11.2019 15:00:00 9,4 5,3 5 3 14 8 WSW 1005,6 55 0,0
08.11.2019 14:00:00 8,8 5,0 8 5 16 8 SW 1005,4 60 0,0
08.11.2019 13:00:00 8,9 5,1 11 6 19 11 WSW 1005,3 52 0,0
08.11.2019 12:00:00 8,0 4,6 7 4 16 9 SSW 1005,6 59 0,0
08.11.2019 11:00:00 7,1 4,3 8 4 17 9 SSW 1005,4 60 0,0
08.11.2019 10:00:00 5,3 3,3 10 5 21 11 SSE 1005,1 60 0,0
08.11.2019 09:00:00 3,5 2,5 14 8 22 12 SSE 1004,9 36 0,0
08.11.2019 08:00:00 3,2 2,2 11 6 21 11 SSE 1004,1 0 0,0
08.11.2019 07:00:00 3,2 2,2 14 8 24 13 SSE 1003,5 0 0,0
08.11.2019 06:00:00 3,4 2,3 16 8 24 13 SSE 1003,2 0 0,0
08.11.2019 05:00:00 4,0 2,6 15 8 26 14 SSE 1002,8 0 0,0
08.11.2019 04:00:00 3,7 2,6 17 9 26 14 SSE 1002,4 0 0,0
08.11.2019 03:00:00 3,8 2,5 13 7 22 12 SSE 1001,8 0 0,0
08.11.2019 02:00:00 4,1 2,7 16 9 23 12 SSE 1001,8 0 0,0
08.11.2019 01:00:00 4,5 2,9 18 10 25 14 SSE 1001,6 0 0,0
08.11.2019 00:00:00 4,7 3,0 16 9 23 12 SSE 1001,3 0 0,0
07.11.2019 23:00:00 5,5 3,4 15 8 35 19 S 1001,1 0 0,0
07.11.2019 22:00:00 6,0 3,7 22 12 32 18 S 1000,8 0 0,0
07.11.2019 21:00:00 5,6 3,7 17 9 26 14 S 1000,4 0 0,0
07.11.2019 20:00:00 6,0 4,0 14 7 25 14 S 999,9 0 0,0
07.11.2019 19:00:00 6,5 4,3 14 8 31 17 SSW 999,5 0 0,0
07.11.2019 18:00:00 6,5 4,2 16 8 37 20 SSW 998,7 0 0,0
07.11.2019 17:00:00 7,7 4,0 21 11 37 20 SSW 997,7 13 0,0
07.11.2019 16:00:00 8,5 5,3 20 11 42 23 SW 996,8 17 0,0
07.11.2019 15:00:00 8,1 5,9 15 8 51 27 SW 995,6 4 0,4
07.11.2019 14:00:00 9,8 6,5 11 6 42 23 SW 994,5 26 0,0
07.11.2019 13:00:00 8,9 7,1 18 10 38 21 SW 993,8 17 0,7
07.11.2019 12:00:00 7,9 7,2 20 11 38 21 S 992,8 0 1,0
07.11.2019 11:00:00 8,0 7,2 19 10 42 23 SE 992,7 0 3,7
07.11.2019 10:00:00 8,2 7,4 14 8 26 14 SE 993,0 0 1,1
07.11.2019 09:00:00 8,0 7,1 16 9 31 17 SE 993,5 0 0,1
07.11.2019 08:00:00 7,6 6,9 14 8 24 13 SE 993,9 0 0,0
07.11.2019 07:00:00 7,3 6,6 14 8 26 14 SE 994,7 0 0,0
07.11.2019 06:00:00 6,8 6,2 17 9 24 13 SE 995,8 0 0,0
07.11.2019 05:00:00 6,9 6,3 12 6 18 10 SE 996,5 0 0,0
07.11.2019 04:00:00 7,0 6,3 14 7 22 12 SE 997,5 0 0,0
07.11.2019 03:00:00 7,4 6,9 14 8 20 11 SE 998,1 0 0,0
07.11.2019 02:00:00 7,4 6,9 13 7 21 11 SE 999,2 0 0,1
07.11.2019 01:00:00 7,2 6,7 11 6 18 10 SSE 1000,0 0 0,0
07.11.2019 00:00:00 7,1 6,6 11 6 16 9 SSE 1000,7 0 0,0
06.11.2019 23:00:00 6,8 6,1 10 5 14 7 SSE 1001,5 0 0,0
06.11.2019 22:00:00 7,2 6,4 6 3 11 6 SSW 1002,2 0 0,0
06.11.2019 21:00:00 8,2 7,4 6 4 15 8 SSW 1002,4 0 0,0
06.11.2019 20:00:00 8,6 7,6 5 3 15 8 SW 1002,8 0 0,5
06.11.2019 19:00:00 9,1 7,5 4 2 10 5 SW 1002,9 0 0,0
06.11.2019 18:00:00 9,2 7,3 4 2 8 4 SW 1002,9 0 0,0
06.11.2019 17:00:00 9,6 7,3 4 2 9 5 WSW 1003,0 0 0,0
06.11.2019 16:00:00 9,8 7,5 5 3 9 5 SW 1003,0 0 0,0

tt = temperature
td = dewpoint
ff = wind speed
fx = gusts
dd = wind direction
ppp = reduced air pressure
sd = sunshine duration
rr = precipitation

Next stations